KLPC/LPC METAR and TAF weather

Enter ICAO airport designator
Station Type Date Time Source
KLPC METAR 2019/08/19 07:37 UTC NOAA

KLPC 190737Z AUTO 00000KT 10SM SCT007 13/12 A2996 RMK AO2


Station Type Date Time Source
KLPC Decoded METAR 2019/08/19 07:37 UTC NOAA

Station name not available
Aug 19, 2019 - 03:37 AM EDT / 2019.08.19 0737 UTC
Wind: Calm:0
Visibility: 10 mile(s):0
Sky conditions: partly cloudy
Temperature: 55 F (13 C)
Dew Point: 53 F (12 C)
Relative Humidity: 93%
Pressure (altimeter): 29.96 in. Hg (1014 hPa)
ob: KLPC 190737Z AUTO 00000KT 10SM SCT007 13/12 A2996 RMK AO2
cycle: 7

Station Type Date Time Source
KLPC TAF UTC NOAA

Error!

Example: see airport list